Time;durP1;ratioP1;P1;durP2;ratioP2;P2;SDS_P1;SDS_P2;PMS_P1;PMS_P2;Temp;Humidity;BMP_temperature;BMP_pressure;BME280_temperature;BME280_humidity;BME280_pressure;Samples;Min_cycle;Max_cycle;Signal;HPM_P1;HPM_P2
2023/01/10 00:01:52;;;;;;;18.77;5.43;;;;;;;5.23;100.00;97857.81;5087971;28;20397;-91
2023/01/10 00:04:18;;;;;;;14.50;4.85;;;;;;;5.05;100.00;97824.75;5091224;28;20039;-92
2023/01/10 00:06:44;;;;;;;13.20;4.90;;;;;;;5.34;100.00;97850.53;5087260;28;20123;-93
2023/01/10 00:09:10;;;;;;;17.58;7.68;;;;;;;5.65;100.00;97860.44;5091497;28;20678;-93
2023/01/10 00:14:35;;;;;;;22.95;7.85;;;;;;;6.01;100.00;97860.50;5092307;27;20396;-91
2023/01/10 00:17:01;;;;;;;24.00;7.53;;;;;;;6.14;100.00;97886.59;5089842;28;20097;-93
2023/01/10 00:19:27;;;;;;;18.15;6.78;;;;;;;6.24;100.00;97887.22;5091080;28;20048;-93
2023/01/10 00:21:53;;;;;;;16.33;5.75;;;;;;;6.32;100.00;97895.84;5090428;28;20047;-91
2023/01/10 00:24:20;;;;;;;17.35;6.10;;;;;;;6.34;100.00;97896.69;5090124;28;20579;-94
2023/01/10 00:26:50;;;;;;;20.38;7.47;;;;;;;6.36;100.00;97902.78;5090233;28;20047;-92
2023/01/10 00:29:16;;;;;;;18.40;5.78;;;;;;;6.27;100.00;97888.97;5090719;28;20123;-90
2023/01/10 00:31:44;;;;;;;19.90;6.30;;;;;;;6.26;100.00;97900.41;5088338;28;20140;-91
2023/01/10 00:34:10;;;;;;;17.63;6.30;;;;;;;6.05;100.00;97871.00;5090723;28;20135;-91
2023/01/10 00:36:35;;;;;;;20.92;5.55;;;;;;;6.23;100.00;97903.13;5090813;28;20172;-92
2023/01/10 00:39:02;;;;;;;19.88;6.68;;;;;;;6.22;100.00;97894.31;5091064;28;20426;-93
2023/01/10 00:44:28;;;;;;;13.95;5.18;;;;;;;6.30;100.00;97896.78;5092545;27;20377;-92
2023/01/10 00:46:54;;;;;;;19.30;6.00;;;;;;;6.42;100.00;97893.88;5089366;28;20048;-93
2023/01/10 00:49:20;;;;;;;14.25;6.32;;;;;;;6.36;100.00;97910.72;5090928;28;20017;-92
2023/01/10 00:51:46;;;;;;;14.18;5.30;;;;;;;6.12;100.00;97898.09;5090816;28;20047;-92
2023/01/10 00:54:13;;;;;;;15.13;6.10;;;;;;;6.15;100.00;97925.28;5089779;28;20038;-91
2023/01/10 00:56:39;;;;;;;13.48;5.32;;;;;;;5.76;100.00;97904.13;5090079;28;20052;-90
2023/01/10 00:59:05;;;;;;;15.27;5.18;;;;;;;5.70;100.00;97932.41;5091315;28;20063;-91
2023/01/10 01:01:33;;;;;;;16.10;4.45;;;;;;;5.76;100.00;97932.28;5089532;28;20314;-91
2023/01/10 01:03:59;;;;;;;11.20;4.63;;;;;;;5.85;100.00;97918.03;5090994;28;20068;-93
2023/01/10 01:06:25;;;;;;;8.18;4.00;;;;;;;5.81;100.00;97919.84;5090775;28;20444;-92
2023/01/10 01:08:51;;;;;;;8.15;4.00;;;;;;;5.88;100.00;97942.56;5091163;28;20033;-92
2023/01/10 01:11:16;;;;;;;8.52;3.88;;;;;;;5.65;100.00;97905.25;5089773;28;20504;-92
2023/01/10 01:13:42;;;;;;;7.22;3.88;;;;;;;5.74;99.16;97926.16;5093669;27;20052;-92
2023/01/10 01:16:08;;;;;;;8.88;4.20;;;;;;;5.88;96.32;97925.88;5089575;28;20460;-93
2023/01/10 01:18:35;;;;;;;9.05;4.28;;;;;;;5.84;97.58;97933.00;5090557;28;20037;-92
2023/01/10 01:21:04;;;;;;;7.03;4.25;;;;;;;5.97;94.95;97936.25;5090882;28;20036;-92
2023/01/10 01:23:31;;;;;;;6.43;4.07;;;;;;;6.08;93.48;97955.38;5090610;28;20508;-92
2023/01/10 01:25:57;;;;;;;8.52;4.47;;;;;;;5.89;94.29;97931.09;5087702;28;20071;-93
2023/01/10 01:28:24;;;;;;;6.53;3.95;;;;;;;6.03;97.04;97956.34;5090993;28;20024;-93
2023/01/10 01:30:49;;;;;;;6.88;4.30;;;;;;;5.75;96.22;97925.28;5088654;28;20049;-92
2023/01/10 01:33:17;;;;;;;7.47;4.07;;;;;;;6.17;92.35;97956.94;5088460;28;20038;-93
2023/01/10 01:35:46;;;;;;;7.28;4.32;;;;;;;6.08;92.64;97951.88;5090085;28;20050;-91
2023/01/10 01:38:12;;;;;;;9.43;4.70;;;;;;;6.24;91.55;97979.63;5091013;28;20043;-94
2023/01/10 01:40:40;;;;;;;8.13;4.10;;;;;;;6.10;90.73;97952.69;5090421;28;20047;-91
2023/01/10 01:43:21;;;;;;;6.88;3.83;;;;;;;6.33;90.37;97982.09;5090232;28;20040;-92
2023/01/10 01:45:47;;;;;;;6.65;3.97;;;;;;;6.27;90.16;97976.94;5088269;28;20098;-94
2023/01/10 01:48:21;;;;;;;5.50;3.75;;;;;;;6.30;89.76;97986.56;5090335;28;20048;-92
2023/01/10 01:50:54;;;;;;;5.68;3.60;;;;;;;6.37;88.93;97986.38;5090616;28;20126;-92
2023/01/10 01:53:28;;;;;;;5.50;3.10;;;;;;;6.37;88.54;97985.50;5090793;28;20033;-93
2023/01/10 01:55:58;;;;;;;5.00;3.08;;;;;;;6.44;88.27;98015.28;5074382;28;20045;-92
2023/01/10 01:58:31;;;;;;;5.40;3.03;;;;;;;6.33;87.55;97997.94;5076833;28;20486;-92
2023/01/10 02:00:58;;;;;;;4.53;3.15;;;;;;;6.34;87.83;98002.31;5077423;28;20043;-92
2023/01/10 02:03:25;;;;;;;4.60;3.05;;;;;;;6.46;87.20;98024.03;5076839;28;20044;-91
2023/01/10 02:05:52;;;;;;;3.65;2.47;;;;;;;6.32;87.50;98001.47;5078736;28;20040;-93
2023/01/10 02:08:18;;;;;;;5.88;2.80;;;;;;;6.12;88.78;97987.84;5075907;28;20437;-91
2023/01/10 02:10:51;;;;;;;4.38;2.72;;;;;;;6.20;88.69;98011.44;5076392;28;20143;-93
2023/01/10 02:13:19;;;;;;;4.30;2.63;;;;;;;6.25;90.25;98043.91;5076902;28;20032;-93
2023/01/10 02:15:45;;;;;;;4.82;2.70;;;;;;;6.16;89.68;98032.63;5075853;28;20042;-93
2023/01/10 02:18:11;;;;;;;3.97;2.60;;;;;;;6.07;89.33;98024.00;5076329;28;20561;-92
2023/01/10 02:20:47;;;;;;;5.93;2.83;;;;;;;5.99;89.92;98013.63;5075850;28;20020;-92
2023/01/10 02:23:42;;;;;;;3.70;2.60;;;;;;;6.01;91.73;98043.50;5075747;28;20029;-92
2023/01/10 02:26:41;;;;;;;4.78;2.80;;;;;;;6.01;90.63;98055.81;5074555;28;20494;-93
2023/01/10 02:29:26;;;;;;;3.70;2.40;;;;;;;5.92;91.08;98051.53;5074555;28;20036;-93
2023/01/10 02:32:14;;;;;;;3.20;2.20;;;;;;;5.83;91.58;98047.31;5074776;28;20043;-93
2023/01/10 02:34:54;;;;;;;4.23;2.70;;;;;;;5.85;91.92;98047.31;5075812;28;20090;-92
2023/01/10 02:37:28;;;;;;;3.92;2.20;;;;;;;5.91;91.48;98066.53;5074890;28;20139;-93
2023/01/10 02:39:58;;;;;;;3.70;2.25;;;;;;;5.81;93.30;98046.47;5076869;28;20048;-92
2023/01/10 02:42:29;;;;;;;3.40;2.05;;;;;;;5.71;94.79;98061.63;5075091;28;20059;-93
2023/01/10 02:45:01;;;;;;;5.35;2.40;;;;;;;5.60;95.48;98058.34;5074727;28;20060;-91
2023/01/10 02:47:36;;;;;;;3.67;2.13;;;;;;;5.37;97.33;98056.09;5058552;28;20380;-93
2023/01/10 02:50:27;;;;;;;3.08;2.08;;;;;;;5.31;97.14;98051.81;5055945;28;20033;-91
2023/01/10 02:52:53;;;;;;;3.03;2.20;;;;;;;5.27;97.68;98078.25;5054736;28;20437;-93
2023/01/10 02:55:21;;;;;;;3.40;2.10;;;;;;;4.82;99.46;98047.38;5055338;28;20046;-93
2023/01/10 02:57:55;;;;;;;2.45;1.90;;;;;;;4.81;100.00;98071.09;5056038;28;20060;-93
2023/01/10 03:00:34;;;;;;;2.90;1.80;;;;;;;4.62;100.00;98062.56;5053867;28;20124;-92
2023/01/10 03:03:26;;;;;;;5.00;2.80;;;;;;;4.49;100.00;98064.53;5054909;28;20045;-93
2023/01/10 03:06:06;;;;;;;3.20;2.10;;;;;;;4.58;100.00;98090.75;5054121;28;20567;-93
2023/01/10 03:08:36;;;;;;;5.95;3.00;;;;;;;4.49;100.00;98097.00;5057791;28;20502;-93
2023/01/10 03:11:04;;;;;;;5.22;3.10;;;;;;;4.26;100.00;98084.13;5057377;28;20414;-90
2023/01/10 03:13:36;;;;;;;6.68;3.10;;;;;;;4.26;100.00;98106.97;5059947;28;20080;-92
2023/01/10 03:16:06;;;;;;;5.15;2.83;;;;;;;4.19;100.00;98115.81;5054845;28;20038;-94
2023/01/10 03:18:36;;;;;;;;;;;;;;;4.02;100.00;98111.63;5056626;28;20043;-93
2023/01/10 03:21:05;;;;;;;4.72;2.80;;;;;;;3.79;100.00;98100.47;5054059;28;20382;-94
2023/01/10 03:23:32;;;;;;;4.47;2.40;;;;;;;3.81;100.00;98125.88;5056234;28;20045;-92
2023/01/10 03:26:03;;;;;;;3.72;2.30;;;;;;;3.60;100.00;98091.91;5058457;28;20023;-92
2023/01/10 03:28:33;;;;;;;3.55;2.40;;;;;;;3.46;100.00;98097.31;5055378;28;20089;-92
2023/01/10 03:31:04;;;;;;;5.03;2.72;;;;;;;3.55;100.00;98122.63;5054116;28;20044;-91
2023/01/10 03:33:34;;;;;;;4.05;2.53;;;;;;;3.74;100.00;98147.88;5056286;28;20065;-93
2023/01/10 03:36:10;;;;;;;3.20;2.25;;;;;;;3.79;100.00;98143.41;5056262;28;20135;-92
2023/01/10 03:38:44;;;;;;;5.50;2.30;;;;;;;3.82;100.00;98138.16;5053117;28;20045;-91
2023/01/10 03:41:15;;;;;;;4.65;2.20;;;;;;;3.96;100.00;98145.00;5054300;28;20045;-92
2023/01/10 03:46:57;;;;;;;2.33;1.70;;;;;;;4.51;100.00;98149.63;5115902;27;20111;-93
2023/01/10 03:49:26;;;;;;;2.03;1.70;;;;;;;4.71;100.00;98152.00;5120915;28;20057;-91
2023/01/10 03:51:53;;;;;;;2.80;1.50;;;;;;;4.90;100.00;98144.69;5117900;28;20039;-92
2023/01/10 03:54:19;;;;;;;1.60;1.50;;;;;;;4.81;100.00;98129.91;5117084;28;20036;-94
2023/01/10 03:56:46;;;;;;;2.95;1.63;;;;;;;4.99;100.00;98160.41;5115278;28;20058;-93
2023/01/10 03:59:12;;;;;;;2.38;1.70;;;;;;;5.05;100.00;98168.22;5117151;28;20035;-96
2023/01/10 04:01:38;;;;;;;1.60;1.50;;;;;;;5.01;100.00;98165.63;5137430;28;20040;-95
2023/01/10 04:04:06;;;;;;;2.20;1.60;;;;;;;5.10;100.00;98168.16;5135265;28;20039;-93
2023/01/10 04:06:31;;;;;;;2.10;1.48;;;;;;;5.22;100.00;98188.16;5119056;28;20048;-95
2023/01/10 04:08:57;;;;;;;1.88;1.60;;;;;;;5.23;99.17;98145.13;5117615;28;20043;-95
2023/01/10 04:11:23;;;;;;;2.22;1.60;;;;;;;5.47;98.07;98168.44;5114721;28;20462;-94
2023/01/10 04:13:49;;;;;;;2.70;1.70;;;;;;;5.36;99.78;98154.56;5116014;28;20067;-95
2023/01/10 04:16:15;;;;;;;4.20;2.05;;;;;;;5.53;97.70;98178.91;5117024;28;20559;-92
2023/01/10 04:18:41;;;;;;;3.45;2.30;;;;;;;5.46;96.50;98171.09;5115411;28;20043;-94
2023/01/10 04:21:08;;;;;;;2.65;2.00;;;;;;;5.30;97.62;98157.28;5114121;28;20044;-94
2023/01/10 04:23:34;;;;;;;2.58;1.98;;;;;;;5.35;99.87;98185.31;5113978;28;20044;-95
2023/01/10 04:26:00;;;;;;;2.25;1.85;;;;;;;5.01;100.00;98158.63;5113675;28;20050;-95
2023/01/10 04:28:26;;;;;;;3.15;1.92;;;;;;;5.13;100.00;98178.63;5113795;28;20043;-94
2023/01/10 04:30:51;;;;;;;2.10;1.77;;;;;;;4.98;100.00;98163.91;5114041;28;20066;-95
2023/01/10 04:33:17;;;;;;;3.55;1.88;;;;;;;5.19;100.00;98204.03;5112137;28;20040;-95
2023/01/10 04:35:46;;;;;;;3.95;2.00;;;;;;;5.15;100.00;98204.06;5114291;28;20044;-94
2023/01/10 04:38:14;;;;;;;2.55;1.88;;;;;;;5.08;100.00;98197.16;5114374;28;20546;-95
2023/01/10 04:40:40;;;;;;;2.75;1.55;;;;;;;5.11;100.00;98219.94;5114119;28;20063;-95
2023/01/10 04:43:06;;;;;;;4.55;1.73;;;;;;;5.01;100.00;98213.06;5119620;28;20476;-94
2023/01/10 04:45:32;;;;;;;6.20;1.92;;;;;;;5.09;100.00;98243.69;5133989;28;20058;-93
2023/01/10 04:47:59;;;;;;;3.55;1.83;;;;;;;4.94;100.00;98238.63;5135360;28;20041;-94
2023/01/10 04:50:25;;;;;;;2.95;1.90;;;;;;;4.74;100.00;98213.41;5133987;28;20051;-93
2023/01/10 04:52:51;;;;;;;1.60;1.50;;;;;;;4.79;100.00;98217.75;5134123;28;20058;-94
2023/01/10 04:55:18;;;;;;;3.42;1.40;;;;;;;4.76;100.00;98208.13;5114386;28;20048;-94
2023/01/10 04:57:44;;;;;;;1.92;1.60;;;;;;;4.98;100.00;98208.69;5112687;28;20039;-92
2023/01/10 05:00:11;;;;;;;2.65;1.50;;;;;;;5.15;100.00;98206.69;5103560;28;20090;-95
2023/01/10 05:02:42;;;;;;;1.40;1.30;;;;;;;5.39;100.00;98244.16;5099683;28;20036;-93
2023/01/10 05:05:09;;;;;;;2.47;1.40;;;;;;;5.47;99.69;98247.56;5100146;28;20036;-94
2023/01/10 05:07:35;;;;;;;4.07;1.40;;;;;;;5.62;97.43;98261.41;5099955;28;20051;-94
2023/01/10 05:10:01;;;;;;;2.03;1.38;;;;;;;5.86;93.69;98261.00;5101471;28;20036;-95
2023/01/10 05:12:29;;;;;;;1.40;1.30;;;;;;;5.76;94.12;98248.84;5098153;28;20070;-96
2023/01/10 05:14:54;;;;;;;1.85;1.48;;;;;;;5.79;95.13;98247.94;5099068;28;20142;-96
2023/01/10 05:17:20;;;;;;;1.33;1.23;;;;;;;5.94;95.74;98280.28;5099758;28;20536;-95
2023/01/10 05:19:46;;;;;;;1.30;1.20;;;;;;;5.83;93.12;98242.56;5100732;28;20040;-95
2023/01/10 05:22:12;;;;;;;1.77;1.30;;;;;;;5.99;93.19;98281.97;5101004;28;20093;-95
2023/01/10 05:24:38;;;;;;;1.30;1.20;;;;;;;5.91;93.18;98258.28;5101077;28;20131;-95
2023/01/10 05:27:04;;;;;;;1.35;1.20;;;;;;;6.02;94.44;98280.13;5099373;28;20162;-95
2023/01/10 05:29:32;;;;;;;1.10;1.10;;;;;;;5.73;95.56;98254.19;5099278;28;20139;-95
2023/01/10 05:31:58;;;;;;;1.67;1.30;;;;;;;5.64;97.31;98260.47;5099289;28;20051;-95
2023/01/10 05:34:24;;;;;;;4.55;2.05;;;;;;;5.66;96.41;98269.25;5100027;28;20044;-95
2023/01/10 05:36:50;;;;;;;1.27;1.15;;;;;;;5.69;97.18;98263.06;5099583;28;20070;-95
2023/01/10 05:39:16;;;;;;;1.90;1.40;;;;;;;5.63;98.47;98278.97;5099866;28;20058;-95
2023/01/10 05:41:42;;;;;;;2.33;1.40;;;;;;;5.46;100.00;98263.38;5098345;28;20115;-95
2023/01/10 05:44:08;;;;;;;2.35;1.30;;;;;;;5.46;100.00;98279.22;5099080;28;20036;-95
2023/01/10 05:46:35;;;;;;;1.50;1.40;;;;;;;5.34;100.00;98277.63;5099205;28;20540;-95
2023/01/10 05:49:01;;;;;;;2.78;1.40;;;;;;;5.47;100.00;98315.25;5098329;28;20135;-96
2023/01/10 05:51:27;;;;;;;1.45;1.35;;;;;;;5.52;100.00;98316.91;5098604;28;20062;-95
2023/01/10 05:53:53;;;;;;;1.40;1.30;;;;;;;5.29;100.00;98301.44;5099169;28;20136;-95
2023/01/10 05:56:19;;;;;;;1.88;1.70;;;;;;;5.20;100.00;98312.06;5099217;28;20048;-95
2023/01/10 05:58:45;;;;;;;2.38;1.35;;;;;;;5.29;100.00;98325.16;5098642;28;20063;-95
2023/01/10 06:01:10;;;;;;;2.90;1.40;;;;;;;5.33;100.00;98334.78;5098655;28;20501;-95
2023/01/10 06:03:38;;;;;;;1.77;1.30;;;;;;;5.26;100.00;98343.63;5098416;28;20490;-95
2023/01/10 06:06:04;;;;;;;1.48;1.35;;;;;;;5.23;100.00;98343.69;5098363;28;20054;-94
2023/01/10 06:08:30;;;;;;;1.40;1.25;;;;;;;5.28;100.00;98367.34;5097898;28;20032;-95
2023/01/10 06:10:56;;;;;;;2.13;1.40;;;;;;;5.27;100.00;98376.13;5098693;28;20052;-96
2023/01/10 06:13:22;;;;;;;2.42;1.35;;;;;;;5.00;100.00;98328.13;5098558;28;20036;-95
2023/01/10 06:15:49;;;;;;;1.48;1.38;;;;;;;5.28;100.00;98377.88;5098036;28;20048;-93
2023/01/10 06:18:15;;;;;;;1.52;1.40;;;;;;;5.32;100.00;98384.88;5098484;28;20405;-94
2023/01/10 06:20:43;;;;;;;2.78;1.92;;;;;;;5.32;100.00;98388.38;5098601;28;20035;-94
2023/01/10 06:23:09;;;;;;;4.50;2.00;;;;;;;5.06;100.00;98364.97;5097640;28;20143;-95
2023/01/10 06:25:39;;;;;;;3.58;1.77;;;;;;;5.20;100.00;98388.50;5097629;28;20493;-94
2023/01/10 06:28:05;;;;;;;2.35;1.80;;;;;;;5.12;100.00;98378.06;5097442;28;20044;-94
2023/01/10 06:30:32;;;;;;;1.60;1.50;;;;;;;5.24;100.00;98408.69;5099465;28;20043;-95
2023/01/10 06:33:00;;;;;;;2.20;1.60;;;;;;;5.05;100.00;98383.41;5098305;28;20043;-96
2023/01/10 06:35:26;;;;;;;2.30;1.40;;;;;;;4.97;100.00;98380.03;5097945;28;20497;-93
2023/01/10 06:37:53;;;;;;;1.98;1.40;;;;;;;4.82;100.00;98373.16;5101103;28;20039;-95
2023/01/10 06:40:19;;;;;;;1.40;1.30;;;;;;;4.91;100.00;98389.72;5099647;28;20047;-95
2023/01/10 06:42:45;;;;;;;1.40;1.30;;;;;;;4.99;100.00;98396.66;5100860;28;20036;-95
2023/01/10 06:45:11;;;;;;;1.17;1.17;;;;;;;5.15;100.00;98433.38;5099008;28;20048;-94
2023/01/10 06:47:37;;;;;;;2.85;1.50;;;;;;;4.96;100.00;98413.38;5098539;28;20040;-95
2023/01/10 06:50:04;;;;;;;2.13;1.50;;;;;;;5.06;100.00;98422.06;5099584;28;20044;-95
2023/01/10 06:52:30;;;;;;;2.38;1.77;;;;;;;5.02;100.00;98423.00;5099266;28;20051;-95
2023/01/10 06:54:58;;;;;;;4.97;3.13;;;;;;;4.93;100.00;98406.38;5099132;28;20048;-94
2023/01/10 06:57:24;;;;;;;6.80;3.42;;;;;;;4.96;100.00;98416.00;5099276;28;20045;-94
2023/01/10 06:59:49;;;;;;;7.68;3.70;;;;;;;4.92;100.00;98412.56;5116840;28;20077;-96
2023/01/10 07:02:15;;;;;;;6.15;4.13;;;;;;;4.95;100.00;98422.19;5120024;28;20040;-95
2023/01/10 07:04:41;;;;;;;6.35;4.10;;;;;;;4.93;100.00;98434.50;5116418;28;20040;-95
2023/01/10 07:07:07;;;;;;;7.85;4.22;;;;;;;4.77;100.00;98431.16;5116476;28;20393;-94
2023/01/10 07:09:33;;;;;;;7.75;4.45;;;;;;;4.88;100.00;98449.47;5117132;28;20039;-94
2023/01/10 07:12:00;;;;;;;6.20;3.90;;;;;;;4.99;100.00;98475.72;5117250;28;20036;-95
2023/01/10 07:14:26;;;;;;;7.95;3.92;;;;;;;5.04;100.00;98485.31;5117638;28;20054;-93
2023/01/10 07:16:52;;;;;;;6.25;3.88;;;;;;;5.07;100.00;98485.28;5117069;28;20138;-94
2023/01/10 07:19:18;;;;;;;6.55;4.13;;;;;;;4.92;100.00;98459.09;5100952;28;20050;-94
2023/01/10 07:21:45;;;;;;;5.32;3.28;;;;;;;5.00;100.00;98473.06;5096898;28;20109;-96
2023/01/10 07:24:11;;;;;;;4.72;3.40;;;;;;;4.83;100.00;98460.03;5097494;28;20040;-95
2023/01/10 07:26:37;;;;;;;8.65;3.30;;;;;;;5.06;100.00;98495.88;5096690;28;20055;-93
2023/01/10 07:29:04;;;;;;;7.32;4.03;;;;;;;4.80;100.00;98460.09;5097250;28;20040;-95
2023/01/10 07:31:30;;;;;;;5.18;3.53;;;;;;;5.18;100.00;98518.59;5096677;28;20040;-94
2023/01/10 07:33:56;;;;;;;6.00;3.35;;;;;;;4.93;100.00;98472.25;5096914;28;20047;-94
2023/01/10 07:36:22;;;;;;;3.38;2.25;;;;;;;5.16;100.00;98505.41;5096626;28;20028;-94
2023/01/10 07:38:48;;;;;;;4.28;2.40;;;;;;;5.14;100.00;98481.72;5116999;28;20047;-94
2023/01/10 07:41:14;;;;;;;5.47;2.58;;;;;;;5.42;100.00;98517.47;5116674;28;20097;-93
2023/01/10 07:43:39;;;;;;;3.72;2.00;;;;;;;5.47;100.00;98519.16;5116672;28;20054;-94
2023/01/10 07:46:10;;;;;;;6.07;2.10;;;;;;;5.55;100.00;98508.53;5097368;28;20040;-94
2023/01/10 07:48:37;;;;;;;4.00;2.30;;;;;;;5.78;100.00;98534.66;5097230;28;20074;-94
2023/01/10 07:51:04;;;;;;;9.82;5.65;;;;;;;5.69;100.00;98509.25;5098089;28;20044;-95
2023/01/10 07:53:30;;;;;;;11.60;6.03;;;;;;;5.86;100.00;98524.88;5097763;28;20093;-95
2023/01/10 07:55:59;;;;;;;12.27;6.07;;;;;;;5.83;100.00;98509.06;5098887;28;20515;-95
2023/01/10 07:58:25;;;;;;;9.83;7.03;;;;;;;5.90;100.00;98516.03;5098052;28;20064;-96
2023/01/10 08:00:50;;;;;;;10.77;6.30;;;;;;;5.95;100.00;98519.53;5097852;28;20040;-95
2023/01/10 08:03:18;;;;;;;10.43;5.88;;;;;;;5.90;100.00;98525.75;5098043;28;20074;-95
2023/01/10 08:05:44;;;;;;;5.75;3.70;;;;;;;6.00;100.00;98535.28;5097747;28;20044;-95
2023/01/10 08:08:11;;;;;;;5.20;3.00;;;;;;;5.99;100.00;98519.50;5097932;28;20077;-94
2023/01/10 08:10:39;;;;;;;7.57;5.03;;;;;;;6.14;100.00;98540.41;5098634;28;20032;-95
2023/01/10 08:13:05;;;;;;;7.55;5.00;;;;;;;6.11;100.00;98540.44;5098153;28;20501;-95
2023/01/10 08:15:31;;;;;;;9.75;5.50;;;;;;;6.09;100.00;98548.38;5097129;28;20048;-95
2023/01/10 08:17:59;;;;;;;12.85;6.72;;;;;;;6.19;100.00;98574.69;5097185;28;20035;-96
2023/01/10 08:20:26;;;;;;;11.50;6.05;;;;;;;6.21;100.00;98586.97;5097238;28;20052;-95
2023/01/10 08:22:52;;;;;;;12.73;6.70;;;;;;;5.90;100.00;98544.22;5096876;28;20036;-95
2023/01/10 08:25:18;;;;;;;8.77;5.57;;;;;;;5.91;100.00;98543.31;5096862;28;20070;-93
2023/01/10 08:27:44;;;;;;;9.98;6.32;;;;;;;5.91;100.00;98549.44;5097528;28;20047;-94
2023/01/10 08:30:11;;;;;;;12.27;7.00;;;;;;;6.12;100.00;98584.44;5098184;28;20480;-95
2023/01/10 08:32:38;;;;;;;13.55;6.75;;;;;;;5.94;100.00;98545.88;5100565;28;20065;-95
2023/01/10 08:35:05;;;;;;;5.97;4.10;;;;;;;6.05;100.00;98572.19;5102631;28;20047;-96
2023/01/10 08:37:33;;;;;;;9.55;4.72;;;;;;;5.93;100.00;98555.59;5102079;28;20516;-95
2023/01/10 08:40:00;;;;;;;7.00;4.30;;;;;;;5.93;100.00;98558.22;5102684;28;20135;-96
2023/01/10 08:42:25;;;;;;;6.75;4.28;;;;;;;6.00;100.00;98556.41;5103014;28;20485;-94
2023/01/10 08:44:51;;;;;;;8.60;4.50;;;;;;;6.04;100.00;98581.03;5121184;28;20047;-93
2023/01/10 08:47:17;;;;;;;9.13;4.20;;;;;;;6.22;100.00;98612.47;5124780;28;20043;-95
2023/01/10 08:49:43;;;;;;;7.45;4.10;;;;;;;5.94;100.00;98575.84;5122919;28;20082;-95
2023/01/10 08:52:09;;;;;;;9.40;4.30;;;;;;;5.97;100.00;98570.53;5123800;28;20065;-94
2023/01/10 08:54:36;;;;;;;5.85;4.20;;;;;;;6.05;100.00;98582.75;5088624;22;20122;-95
2023/01/10 08:57:03;;;;;;;7.07;4.60;;;;;;;6.06;100.00;98595.94;5020817;28;20042;-93
2023/01/10 08:59:29;;;;;;;7.22;3.88;;;;;;;6.16;100.00;98604.66;5019867;28;20417;-96
2023/01/10 09:01:57;;;;;;;8.13;4.53;;;;;;;6.31;100.00;98617.66;5022156;28;20037;-95
2023/01/10 09:04:23;;;;;;;11.02;6.57;;;;;;;6.36;100.00;98623.75;5039694;28;20088;-94
2023/01/10 09:06:49;;;;;;;10.98;6.32;;;;;;;6.66;100.00;98653.31;5040302;28;20159;-93
2023/01/10 09:09:15;;;;;;;10.23;5.40;;;;;;;6.84;100.00;98661.88;5026022;28;20455;-95
2023/01/10 09:11:42;;;;;;;7.72;4.28;;;;;;;6.82;98.41;98629.31;5027491;28;20053;-95
2023/01/10 09:14:08;;;;;;;8.82;4.88;;;;;;;7.12;99.72;98636.78;5021345;28;20041;-93
2023/01/10 09:16:34;;;;;;;16.30;4.68;;;;;;;7.40;99.51;98657.50;5038142;28;20052;-94
2023/01/10 09:19:00;;;;;;;9.70;4.35;;;;;;;7.37;98.76;98641.69;5040251;28;20038;-94
2023/01/10 09:21:27;;;;;;;8.48;4.93;;;;;;;7.45;97.08;98652.16;5039149;28;20052;-95
2023/01/10 09:23:53;;;;;;;10.18;6.78;;;;;;;7.57;96.65;98674.00;5033629;28;20088;-94
2023/01/10 09:26:19;;;;;;;11.85;6.65;;;;;;;7.64;96.72;98668.59;5032800;28;20077;-94
2023/01/10 09:28:48;;;;;;;9.43;6.38;;;;;;;7.57;96.87;98674.00;5027796;28;20042;-95
2023/01/10 09:31:14;;;;;;;8.73;6.00;;;;;;;7.41;96.87;98656.59;5032182;28;20068;-94
2023/01/10 09:33:41;;;;;;;11.43;6.05;;;;;;;7.42;96.57;98668.94;5040501;28;20039;-95
2023/01/10 09:36:08;;;;;;;17.88;13.07;;;;;;;7.24;96.36;98650.72;5026269;28;20065;-96
2023/01/10 09:38:34;;;;;;;15.32;11.05;;;;;;;7.40;97.28;98686.63;5026342;28;20042;-95
2023/01/10 09:41:36;;;;;;;10.45;7.43;;;;;;;7.46;97.97;98686.53;5036592;28;20076;-95
2023/01/10 09:44:13;;;;;;;13.50;8.15;;;;;;;7.51;97.65;98674.09;5037067;28;20033;-94
2023/01/10 09:46:51;;;;;;;12.00;8.15;;;;;;;7.76;95.74;98682.50;5026502;28;20146;-95
2023/01/10 09:49:25;;;;;;;13.27;8.20;;;;;;;7.85;95.64;98686.75;5019705;28;20061;-96
2023/01/10 09:51:55;;;;;;;15.70;8.60;;;;;;;7.93;95.48;98698.06;5021676;28;20037;-96
2023/01/10 09:54:26;;;;;;;15.57;8.82;;;;;;;8.27;96.18;98712.50;5020950;28;20046;-93
2023/01/10 09:56:54;;;;;;;14.73;8.10;;;;;;;8.44;93.99;98718.38;5021998;28;20129;-94
2023/01/10 09:59:24;;;;;;;13.15;7.72;;;;;;;8.43;90.95;98695.41;5020337;28;20045;-94
2023/01/10 10:01:56;;;;;;;13.48;8.07;;;;;;;8.47;90.24;98689.16;5021339;28;20140;-95
2023/01/10 10:04:27;;;;;;;12.57;7.30;;;;;;;8.51;89.73;98684.69;5021300;28;20042;-95
2023/01/10 10:06:53;;;;;;;11.32;7.15;;;;;;;8.74;89.49;98711.59;5035086;28;20046;-95
2023/01/10 10:09:23;;;;;;;12.02;7.15;;;;;;;8.62;89.26;98691.50;5034008;28;20042;-93
2023/01/10 10:12:04;;;;;;;9.88;6.60;;;;;;;8.63;88.83;98682.66;5023727;28;20037;-95
2023/01/10 10:14:48;;;;;;;11.57;6.40;;;;;;;8.88;88.02;98711.28;5041822;28;20136;-95
2023/01/10 10:17:28;;;;;;;14.77;7.30;;;;;;;8.82;86.26;98701.69;5028612;28;20061;-95
2023/01/10 10:20:05;;;;;;;12.57;6.68;;;;;;;9.00;87.50;98724.31;5037253;28;20057;-95
2023/01/10 10:22:42;;;;;;;10.02;6.40;;;;;;;8.83;86.19;98679.56;5021312;28;20109;-96
2023/01/10 10:25:24;;;;;;;11.80;6.40;;;;;;;9.12;86.50;98711.69;5020823;28;20042;-96
2023/01/10 10:28:11;;;;;;;18.33;6.95;;;;;;;9.04;85.68;98695.91;5028318;28;20554;-96
2023/01/10 10:30:48;;;;;;;10.00;5.53;;;;;;;9.20;85.56;98723.88;5026276;28;20068;-95
2023/01/10 10:33:33;;;;;;;11.15;6.90;;;;;;;8.92;85.19;98677.63;5031215;28;20141;-94
2023/01/10 10:36:03;;;;;;;8.45;5.65;;;;;;;9.16;84.06;98708.06;5018422;28;20104;-95
2023/01/10 10:38:35;;;;;;;8.75;6.20;;;;;;;8.97;84.40;98667.78;5025976;28;20052;-95
2023/01/10 10:41:01;;;;;;;12.63;6.50;;;;;;;8.97;83.68;98689.00;5024055;28;20484;-95
2023/01/10 10:43:32;;;;;;;10.38;5.57;;;;;;;9.01;84.32;98707.47;5028058;28;20588;-94
2023/01/10 10:46:04;;;;;;;8.18;5.72;;;;;;;8.93;84.25;98695.28;5033553;28;20556;-96
2023/01/10 10:48:32;;;;;;;8.27;5.38;;;;;;;8.96;84.69;98712.00;5026305;28;20069;-94
2023/01/10 10:51:04;;;;;;;8.18;5.45;;;;;;;8.90;83.88;98703.31;5018956;28;20046;-94
2023/01/10 10:53:32;;;;;;;9.65;5.22;;;;;;;8.86;84.23;98701.63;5029225;28;20041;-94
2023/01/10 10:55:59;;;;;;;7.72;4.82;;;;;;;8.98;82.35;98722.59;5038685;28;20049;-95
2023/01/10 10:58:25;;;;;;;7.00;4.25;;;;;;;8.81;82.15;98699.94;5029858;28;20038;-96
2023/01/10 11:00:51;;;;;;;8.73;4.43;;;;;;;8.90;82.03;98722.75;5032268;28;20128;-93
2023/01/10 11:03:31;;;;;;;7.15;4.20;;;;;;;8.77;81.11;98695.59;5024554;28;20033;-91
2023/01/10 11:06:00;;;;;;;6.63;4.38;;;;;;;8.92;80.07;98728.88;5031805;28;20183;-94
2023/01/10 11:08:28;;;;;;;8.05;4.72;;;;;;;8.82;81.08;98709.63;5035114;28;20045;-95
2023/01/10 11:10:56;;;;;;;9.00;4.72;;;;;;;9.00;81.74;98734.91;5033777;28;20053;-94
2023/01/10 11:13:35;;;;;;;8.45;4.65;;;;;;;9.05;78.08;98708.28;5025994;28;20066;-95
2023/01/10 11:16:03;;;;;;;8.50;5.13;;;;;;;9.20;79.57;98729.16;5033822;28;20076;-94
2023/01/10 11:18:31;;;;;;;8.00;5.03;;;;;;;9.15;81.55;98727.50;5028708;28;20100;-94
2023/01/10 11:21:00;;;;;;;13.13;5.43;;;;;;;9.10;82.13;98718.78;5038641;28;20562;-95
2023/01/10 11:23:37;;;;;;;9.93;5.85;;;;;;;9.09;83.67;98704.66;5038089;28;20049;-95
2023/01/10 11:26:05;;;;;;;12.60;5.88;;;;;;;9.04;82.34;98693.25;5035604;28;20123;-96
2023/01/10 11:28:33;;;;;;;9.57;5.47;;;;;;;9.07;83.41;98703.81;5030124;28;20049;-95
2023/01/10 11:31:00;;;;;;;9.50;5.63;;;;;;;9.27;83.20;98742.31;5034347;28;20041;-96
2023/01/10 11:33:28;;;;;;;8.73;5.18;;;;;;;9.20;83.22;98728.31;5039124;28;20045;-95
2023/01/10 11:36:02;;;;;;;7.35;5.15;;;;;;;9.27;82.63;98737.88;5042840;28;20135;-94
2023/01/10 11:38:29;;;;;;;8.13;5.35;;;;;;;9.27;83.03;98721.06;5041790;28;20439;-96
2023/01/10 11:40:57;;;;;;;9.55;5.45;;;;;;;9.22;83.88;98702.59;5040686;28;20076;-95
2023/01/10 11:43:27;;;;;;;8.32;5.70;;;;;;;9.28;83.72;98701.56;5021033;28;20137;-94
2023/01/10 11:45:55;;;;;;;10.13;6.30;;;;;;;9.32;82.39;98711.22;5025514;28;20133;-94
2023/01/10 11:48:23;;;;;;;11.65;6.05;;;;;;;9.33;82.90;98713.84;5035300;28;20092;-94
2023/01/10 11:50:51;;;;;;;7.72;5.47;;;;;;;9.38;84.00;98708.44;5033313;28;20037;-95
2023/01/10 11:53:40;;;;;;;9.48;5.43;;;;;;;9.46;82.54;98720.63;5029171;28;20076;-95